sensor_id;sensor_type;location;lat;lon;timestamp;pressure;altitude;pressure_sealevel;temperature;humidity
8416;BME280;4245;42.120;24.732;2023-04-24T00:01:02;99158.34;;;12.67;98.03
8416;BME280;4245;42.120;24.732;2023-04-24T00:03:32;99154.84;;;12.66;98.39
8416;BME280;4245;42.120;24.732;2023-04-24T00:05:59;99166.25;;;12.68;98.31
8416;BME280;4245;42.120;24.732;2023-04-24T00:08:29;99161.13;;;12.76;97.08
8416;BME280;4245;42.120;24.732;2023-04-24T00:10:56;99154.69;;;12.79;97.24
8416;BME280;4245;42.120;24.732;2023-04-24T00:13:23;99158.94;;;12.81;96.51
8416;BME280;4245;42.120;24.732;2023-04-24T00:15:50;99156.75;;;12.75;97.25
8416;BME280;4245;42.120;24.732;2023-04-24T00:18:17;99153.72;;;12.80;96.48
8416;BME280;4245;42.120;24.732;2023-04-24T00:20:44;99161.63;;;12.70;98.55
8416;BME280;4245;42.120;24.732;2023-04-24T00:23:12;99169.00;;;12.78;97.12
8416;BME280;4245;42.120;24.732;2023-04-24T00:25:40;99169.50;;;12.72;96.92
8416;BME280;4245;42.120;24.732;2023-04-24T00:28:07;99155.69;;;12.55;98.15
8416;BME280;4245;42.120;24.732;2023-04-24T00:30:34;99150.13;;;12.25;100.00
8416;BME280;4245;42.120;24.732;2023-04-24T00:33:01;99152.31;;;12.31;100.00
8416;BME280;4245;42.120;24.732;2023-04-24T00:35:28;99158.97;;;12.26;100.00
8416;BME280;4245;42.120;24.732;2023-04-24T00:37:55;99162.47;;;11.93;100.00
8416;BME280;4245;42.120;24.732;2023-04-24T00:40:22;99151.13;;;11.56;100.00
8416;BME280;4245;42.120;24.732;2023-04-24T00:42:50;99144.50;;;11.38;100.00
8416;BME280;4245;42.120;24.732;2023-04-24T00:45:17;99150.09;;;11.11;100.00
8416;BME280;4245;42.120;24.732;2023-04-24T00:47:45;99157.22;;;11.10;100.00
8416;BME280;4245;42.120;24.732;2023-04-24T00:50:14;99154.47;;;10.88;100.00
8416;BME280;4245;42.120;24.732;2023-04-24T00:52:41;99154.81;;;11.07;100.00
8416;BME280;4245;42.120;24.732;2023-04-24T00:55:08;99148.63;;;10.83;100.00
8416;BME280;4245;42.120;24.732;2023-04-24T00:57:35;99147.69;;;10.84;100.00
8416;BME280;4245;42.120;24.732;2023-04-24T01:00:06;99147.28;;;10.77;100.00
8416;BME280;4245;42.120;24.732;2023-04-24T01:02:36;99146.09;;;10.81;100.00
8416;BME280;4245;42.120;24.732;2023-04-24T01:05:06;99154.13;;;10.93;100.00
8416;BME280;4245;42.120;24.732;2023-04-24T01:07:32;99152.75;;;10.87;100.00
8416;BME280;4245;42.120;24.732;2023-04-24T01:10:00;99145.41;;;10.90;100.00
8416;BME280;4245;42.120;24.732;2023-04-24T01:12:27;99155.06;;;10.92;100.00
8416;BME280;4245;42.120;24.732;2023-04-24T01:14:54;99152.09;;;10.96;100.00
8416;BME280;4245;42.120;24.732;2023-04-24T01:17:23;99145.91;;;10.96;100.00
8416;BME280;4245;42.120;24.732;2023-04-24T01:19:50;99150.78;;;11.02;100.00
8416;BME280;4245;42.120;24.732;2023-04-24T01:22:20;99153.34;;;11.03;100.00
8416;BME280;4245;42.120;24.732;2023-04-24T01:24:47;99149.53;;;10.95;100.00
8416;BME280;4245;42.120;24.732;2023-04-24T01:27:14;99147.50;;;10.98;100.00
8416;BME280;4245;42.120;24.732;2023-04-24T01:29:41;99153.00;;;10.84;100.00
8416;BME280;4245;42.120;24.732;2023-04-24T01:32:08;99143.97;;;10.50;100.00
8416;BME280;4245;42.120;24.732;2023-04-24T01:34:35;99148.94;;;10.55;100.00
8416;BME280;4245;42.120;24.732;2023-04-24T01:37:02;99152.28;;;10.45;100.00
8416;BME280;4245;42.120;24.732;2023-04-24T01:39:31;99153.03;;;10.35;100.00
8416;BME280;4245;42.120;24.732;2023-04-24T01:41:59;99153.25;;;9.94;100.00
8416;BME280;4245;42.120;24.732;2023-04-24T01:44:26;99155.69;;;9.84;100.00
8416;BME280;4245;42.120;24.732;2023-04-24T01:46:53;99153.13;;;9.83;100.00
8416;BME280;4245;42.120;24.732;2023-04-24T01:49:21;99155.56;;;9.73;100.00
8416;BME280;4245;42.120;24.732;2023-04-24T01:51:48;99149.84;;;9.67;100.00
8416;BME280;4245;42.120;24.732;2023-04-24T01:54:14;99153.03;;;9.84;100.00
8416;BME280;4245;42.120;24.732;2023-04-24T01:56:43;99141.16;;;9.77;100.00
8416;BME280;4245;42.120;24.732;2023-04-24T01:59:10;99149.22;;;9.76;100.00
8416;BME280;4245;42.120;24.732;2023-04-24T02:01:38;99150.06;;;9.76;100.00
8416;BME280;4245;42.120;24.732;2023-04-24T02:04:05;99146.84;;;9.58;100.00
8416;BME280;4245;42.120;24.732;2023-04-24T02:06:33;99140.31;;;9.77;100.00
8416;BME280;4245;42.120;24.732;2023-04-24T02:09:00;99133.41;;;9.74;100.00
8416;BME280;4245;42.120;24.732;2023-04-24T02:11:27;99137.00;;;9.86;100.00
8416;BME280;4245;42.120;24.732;2023-04-24T02:13:55;99134.91;;;9.91;100.00
8416;BME280;4245;42.120;24.732;2023-04-24T02:16:22;99130.66;;;10.01;100.00
8416;BME280;4245;42.120;24.732;2023-04-24T02:18:48;99127.03;;;10.02;100.00
8416;BME280;4245;42.120;24.732;2023-04-24T02:21:15;99126.81;;;10.05;100.00
8416;BME280;4245;42.120;24.732;2023-04-24T02:23:42;99125.31;;;10.14;100.00
8416;BME280;4245;42.120;24.732;2023-04-24T02:26:10;99124.06;;;10.19;100.00
8416;BME280;4245;42.120;24.732;2023-04-24T02:28:36;99120.47;;;10.20;100.00
8416;BME280;4245;42.120;24.732;2023-04-24T02:31:05;99115.16;;;10.20;100.00
8416;BME280;4245;42.120;24.732;2023-04-24T02:33:31;99115.44;;;10.03;100.00
8416;BME280;4245;42.120;24.732;2023-04-24T02:35:58;99112.13;;;10.12;100.00
8416;BME280;4245;42.120;24.732;2023-04-24T02:38:25;99119.28;;;10.24;100.00
8416;BME280;4245;42.120;24.732;2023-04-24T02:40:52;99115.53;;;10.14;100.00
8416;BME280;4245;42.120;24.732;2023-04-24T02:43:19;99119.28;;;10.24;100.00
8416;BME280;4245;42.120;24.732;2023-04-24T02:45:45;99115.78;;;10.24;100.00
8416;BME280;4245;42.120;24.732;2023-04-24T02:48:14;99116.94;;;10.20;100.00
8416;BME280;4245;42.120;24.732;2023-04-24T02:50:40;99118.31;;;10.25;100.00
8416;BME280;4245;42.120;24.732;2023-04-24T02:53:07;99118.31;;;10.25;100.00
8416;BME280;4245;42.120;24.732;2023-04-24T02:55:34;99118.63;;;10.33;100.00
8416;BME280;4245;42.120;24.732;2023-04-24T02:58:01;99124.88;;;10.32;100.00
8416;BME280;4245;42.120;24.732;2023-04-24T03:00:28;99127.34;;;10.23;100.00
8416;BME280;4245;42.120;24.732;2023-04-24T03:02:55;99119.56;;;10.07;100.00
8416;BME280;4245;42.120;24.732;2023-04-24T03:05:23;99120.56;;;10.19;100.00
8416;BME280;4245;42.120;24.732;2023-04-24T03:07:50;99125.22;;;10.15;100.00
8416;BME280;4245;42.120;24.732;2023-04-24T03:10:18;99123.13;;;10.20;100.00
8416;BME280;4245;42.120;24.732;2023-04-24T03:12:44;99120.84;;;10.27;100.00
8416;BME280;4245;42.120;24.732;2023-04-24T03:15:11;99123.72;;;10.24;100.00
8416;BME280;4245;42.120;24.732;2023-04-24T03:17:38;99123.50;;;10.14;100.00
8416;BME280;4245;42.120;24.732;2023-04-24T03:20:06;99130.63;;;10.14;100.00
8416;BME280;4245;42.120;24.732;2023-04-24T03:22:35;99130.31;;;10.18;100.00
8416;BME280;4245;42.120;24.732;2023-04-24T03:25:02;99137.31;;;9.94;100.00
8416;BME280;4245;42.120;24.732;2023-04-24T03:27:29;99135.00;;;10.02;100.00
8416;BME280;4245;42.120;24.732;2023-04-24T03:29:56;99127.47;;;9.96;100.00
8416;BME280;4245;42.120;24.732;2023-04-24T03:32:23;99134.13;;;9.89;100.00
8416;BME280;4245;42.120;24.732;2023-04-24T03:34:50;99130.66;;;10.01;100.00
8416;BME280;4245;42.120;24.732;2023-04-24T03:37:17;99136.81;;;10.01;100.00
8416;BME280;4245;42.120;24.732;2023-04-24T03:39:45;99140.59;;;10.10;100.00
8416;BME280;4245;42.120;24.732;2023-04-24T03:42:12;99143.88;;;10.14;100.00
8416;BME280;4245;42.120;24.732;2023-04-24T03:44:38;99130.22;;;10.20;100.00
8416;BME280;4245;42.120;24.732;2023-04-24T03:47:05;99139.84;;;10.33;100.00
8416;BME280;4245;42.120;24.732;2023-04-24T03:49:32;99143.25;;;10.35;100.00
8416;BME280;4245;42.120;24.732;2023-04-24T03:51:59;99130.09;;;10.34;100.00
8416;BME280;4245;42.120;24.732;2023-04-24T03:54:26;99133.50;;;10.23;100.00
8416;BME280;4245;42.120;24.732;2023-04-24T03:56:54;99128.38;;;10.33;100.00
8416;BME280;4245;42.120;24.732;2023-04-24T03:59:20;99129.31;;;10.44;100.00
8416;BME280;4245;42.120;24.732;2023-04-24T04:01:47;99134.41;;;10.48;100.00
8416;BME280;4245;42.120;24.732;2023-04-24T04:04:14;99123.88;;;10.59;100.00
8416;BME280;4245;42.120;24.732;2023-04-24T04:06:41;99127.75;;;10.66;100.00
8416;BME280;4245;42.120;24.732;2023-04-24T04:09:08;99136.56;;;10.66;100.00
8416;BME280;4245;42.120;24.732;2023-04-24T04:11:34;99138.38;;;10.66;100.00
8416;BME280;4245;42.120;24.732;2023-04-24T04:14:03;99139.13;;;10.68;100.00
8416;BME280;4245;42.120;24.732;2023-04-24T04:16:30;99143.34;;;10.70;100.00
8416;BME280;4245;42.120;24.732;2023-04-24T04:19:01;99147.44;;;10.87;100.00
8416;BME280;4245;42.120;24.732;2023-04-24T04:21:28;99150.88;;;11.00;100.00
8416;BME280;4245;42.120;24.732;2023-04-24T04:23:56;99147.84;;;11.17;100.00
8416;BME280;4245;42.120;24.732;2023-04-24T04:26:23;99151.03;;;11.33;100.00
8416;BME280;4245;42.120;24.732;2023-04-24T04:28:51;99158.47;;;11.52;100.00
8416;BME280;4245;42.120;24.732;2023-04-24T04:31:19;99165.72;;;11.74;100.00
8416;BME280;4245;42.120;24.732;2023-04-24T04:33:46;99171.19;;;11.95;100.00
8416;BME280;4245;42.120;24.732;2023-04-24T04:36:13;99167.69;;;12.05;100.00
8416;BME280;4245;42.120;24.732;2023-04-24T04:38:39;99161.03;;;12.22;100.00
8416;BME280;4245;42.120;24.732;2023-04-24T04:41:08;99168.19;;;12.33;100.00
8416;BME280;4245;42.120;24.732;2023-04-24T04:43:35;99170.34;;;12.50;100.00
8416;BME280;4245;42.120;24.732;2023-04-24T04:46:02;99168.91;;;12.68;100.00
8416;BME280;4245;42.120;24.732;2023-04-24T04:48:31;99163.44;;;12.70;100.00
8416;BME280;4245;42.120;24.732;2023-04-24T04:50:58;99172.97;;;12.83;100.00
8416;BME280;4245;42.120;24.732;2023-04-24T04:53:25;99169.53;;;13.03;100.00
8416;BME280;4245;42.120;24.732;2023-04-24T04:55:52;99166.00;;;13.03;100.00
8416;BME280;4245;42.120;24.732;2023-04-24T04:58:19;99166.88;;;13.15;98.89
8416;BME280;4245;42.120;24.732;2023-04-24T05:00:46;99159.00;;;13.13;98.25
8416;BME280;4245;42.120;24.732;2023-04-24T05:03:13;99160.38;;;13.28;96.68
8416;BME280;4245;42.120;24.732;2023-04-24T05:05:41;99158.84;;;13.46;100.00
8416;BME280;4245;42.120;24.732;2023-04-24T05:08:08;99156.38;;;14.17;100.00
8416;BME280;4245;42.120;24.732;2023-04-24T05:10:35;99155.88;;;15.70;100.00
8416;BME280;4245;42.120;24.732;2023-04-24T05:13:02;99155.53;;;16.76;97.80
8416;BME280;4245;42.120;24.732;2023-04-24T05:15:29;99159.38;;;16.73;90.97
8416;BME280;4245;42.120;24.732;2023-04-24T05:17:56;99159.78;;;17.41;85.78
8416;BME280;4245;42.120;24.732;2023-04-24T05:20:23;99157.72;;;17.96;82.18
8416;BME280;4245;42.120;24.732;2023-04-24T05:22:52;99150.63;;;18.39;77.32
8416;BME280;4245;42.120;24.732;2023-04-24T05:25:18;99156.59;;;18.92;74.64
8416;BME280;4245;42.120;24.732;2023-04-24T05:27:45;99147.34;;;18.95;70.26
8416;BME280;4245;42.120;24.732;2023-04-24T05:30:13;99146.91;;;18.74;66.06
8416;BME280;4245;42.120;24.732;2023-04-24T05:32:39;99152.06;;;19.01;69.84
8416;BME280;4245;42.120;24.732;2023-04-24T05:35:07;99138.47;;;19.27;67.56
8416;BME280;4245;42.120;24.732;2023-04-24T05:37:34;99136.47;;;19.29;66.49
8416;BME280;4245;42.120;24.732;2023-04-24T05:40:02;99139.97;;;19.05;66.40
8416;BME280;4245;42.120;24.732;2023-04-24T05:42:30;99135.94;;;18.59;66.96
8416;BME280;4245;42.120;24.732;2023-04-24T05:44:57;99126.34;;;18.56;68.42
8416;BME280;4245;42.120;24.732;2023-04-24T05:47:24;99135.94;;;19.01;67.96
8416;BME280;4245;42.120;24.732;2023-04-24T05:49:52;99133.03;;;18.86;64.46
8416;BME280;4245;42.120;24.732;2023-04-24T05:52:19;99135.47;;;18.38;65.47
8416;BME280;4245;42.120;24.732;2023-04-24T05:54:46;99136.72;;;18.17;65.89
8416;BME280;4245;42.120;24.732;2023-04-24T05:57:14;99135.31;;;17.62;70.45
8416;BME280;4245;42.120;24.732;2023-04-24T05:59:41;99130.09;;;17.60;72.37
8416;BME280;4245;42.120;24.732;2023-04-24T06:02:07;99147.63;;;17.90;65.72
8416;BME280;4245;42.120;24.732;2023-04-24T06:04:34;99141.19;;;17.83;69.85
8416;BME280;4245;42.120;24.732;2023-04-24T06:07:01;99148.56;;;17.81;70.28
8416;BME280;4245;42.120;24.732;2023-04-24T06:09:28;99136.78;;;17.82;69.47
8416;BME280;4245;42.120;24.732;2023-04-24T06:11:55;99150.38;;;17.98;71.51
8416;BME280;4245;42.120;24.732;2023-04-24T06:14:23;99145.13;;;18.22;70.02
8416;BME280;4245;42.120;24.732;2023-04-24T06:16:50;99136.19;;;18.48;67.43
8416;BME280;4245;42.120;24.732;2023-04-24T06:19:16;99144.94;;;17.90;71.76
8416;BME280;4245;42.120;24.732;2023-04-24T06:21:43;99141.56;;;17.53;73.02
8416;BME280;4245;42.120;24.732;2023-04-24T06:24:10;99146.94;;;17.88;75.04
8416;BME280;4245;42.120;24.732;2023-04-24T06:26:37;99132.94;;;18.36;71.60
8416;BME280;4245;42.120;24.732;2023-04-24T06:29:04;99150.56;;;19.06;67.02
8416;BME280;4245;42.120;24.732;2023-04-24T06:31:32;99142.78;;;19.70;64.70
8416;BME280;4245;42.120;24.732;2023-04-24T06:34:02;99151.09;;;19.10;60.03
8416;BME280;4245;42.120;24.732;2023-04-24T06:36:29;99147.47;;;18.51;63.13
8416;BME280;4245;42.120;24.732;2023-04-24T06:38:56;99146.75;;;18.41;65.86
8416;BME280;4245;42.120;24.732;2023-04-24T06:41:23;99140.38;;;18.16;64.78
8416;BME280;4245;42.120;24.732;2023-04-24T06:43:50;99142.59;;;18.21;68.41
8416;BME280;4245;42.120;24.732;2023-04-24T06:46:17;99144.81;;;18.25;63.68
8416;BME280;4245;42.120;24.732;2023-04-24T06:48:45;99143.66;;;18.02;65.58
8416;BME280;4245;42.120;24.732;2023-04-24T06:51:12;99146.75;;;18.15;64.46
8416;BME280;4245;42.120;24.732;2023-04-24T06:53:39;99145.50;;;18.28;65.22
8416;BME280;4245;42.120;24.732;2023-04-24T06:56:06;99151.81;;;18.44;63.33
8416;BME280;4245;42.120;24.732;2023-04-24T06:58:32;99149.13;;;18.44;62.47
8416;BME280;4245;42.120;24.732;2023-04-24T07:00:59;99145.13;;;18.22;63.89
8416;BME280;4245;42.120;24.732;2023-04-24T07:03:26;99146.75;;;18.15;63.65
8416;BME280;4245;42.120;24.732;2023-04-24T07:05:54;99148.56;;;18.33;62.64
8416;BME280;4245;42.120;24.732;2023-04-24T07:08:21;99150.63;;;18.13;63.43
8416;BME280;4245;42.120;24.732;2023-04-24T07:10:49;99155.13;;;17.87;65.26
8416;BME280;4245;42.120;24.732;2023-04-24T07:13:16;99149.78;;;18.38;62.79
8416;BME280;4245;42.120;24.732;2023-04-24T07:15:42;99155.59;;;18.59;62.53
8416;BME280;4245;42.120;24.732;2023-04-24T07:18:09;99161.69;;;19.12;61.34
8416;BME280;4245;42.120;24.732;2023-04-24T07:20:36;99156.41;;;19.60;59.25
8416;BME280;4245;42.120;24.732;2023-04-24T07:23:04;99149.16;;;19.85;57.10
8416;BME280;4245;42.120;24.732;2023-04-24T07:25:31;99152.34;;;19.80;58.05
8416;BME280;4245;42.120;24.732;2023-04-24T07:27:58;99152.84;;;19.92;57.02
8416;BME280;4245;42.120;24.732;2023-04-24T07:30:25;99154.22;;;19.88;57.40
8416;BME280;4245;42.120;24.732;2023-04-24T07:32:54;99156.22;;;19.86;57.30
8416;BME280;4245;42.120;24.732;2023-04-24T07:35:21;99157.72;;;20.21;55.66
8416;BME280;4245;42.120;24.732;2023-04-24T07:37:48;99158.75;;;20.04;56.21
8416;BME280;4245;42.120;24.732;2023-04-24T07:40:16;99154.69;;;20.08;56.56
8416;BME280;4245;42.120;24.732;2023-04-24T07:42:43;99154.19;;;20.12;56.16
8416;BME280;4245;42.120;24.732;2023-04-24T07:45:10;99148.66;;;19.89;57.01
8416;BME280;4245;42.120;24.732;2023-04-24T07:47:37;99150.78;;;20.26;55.54
8416;BME280;4245;42.120;24.732;2023-04-24T07:50:05;99146.25;;;21.13;52.20
8416;BME280;4245;42.120;24.732;2023-04-24T07:52:32;99144.84;;;21.71;49.16
8416;BME280;4245;42.120;24.732;2023-04-24T07:54:59;99136.59;;;21.87;48.32
8416;BME280;4245;42.120;24.732;2023-04-24T07:57:28;99137.31;;;22.03;47.90
8416;BME280;4245;42.120;24.732;2023-04-24T07:59:55;99138.00;;;22.20;46.33
8416;BME280;4245;42.120;24.732;2023-04-24T08:02:22;99135.72;;;21.26;48.62
8416;BME280;4245;42.120;24.732;2023-04-24T08:04:51;99127.84;;;21.16;49.80
8416;BME280;4245;42.120;24.732;2023-04-24T08:07:19;99123.22;;;20.94;50.49
8416;BME280;4245;42.120;24.732;2023-04-24T08:09:46;99125.00;;;21.10;49.99
8416;BME280;4245;42.120;24.732;2023-04-24T08:12:13;99130.66;;;20.92;49.36
8416;BME280;4245;42.120;24.732;2023-04-24T08:14:41;99132.13;;;20.64;51.17
8416;BME280;4245;42.120;24.732;2023-04-24T08:17:08;99126.09;;;20.54;51.34
8416;BME280;4245;42.120;24.732;2023-04-24T08:19:34;99119.75;;;20.47;51.52
8416;BME280;4245;42.120;24.732;2023-04-24T08:22:01;99123.47;;;20.37;52.23
8416;BME280;4245;42.120;24.732;2023-04-24T08:24:29;99120.75;;;20.85;51.35
8416;BME280;4245;42.120;24.732;2023-04-24T08:26:56;99117.91;;;21.09;49.66
8416;BME280;4245;42.120;24.732;2023-04-24T08:29:23;99115.03;;;21.10;49.93
8416;BME280;4245;42.120;24.732;2023-04-24T08:31:53;99107.84;;;21.25;50.11
8416;BME280;4245;42.120;24.732;2023-04-24T08:34:21;99102.91;;;21.75;48.83
8416;BME280;4245;42.120;24.732;2023-04-24T08:36:48;99100.03;;;21.76;48.07
8416;BME280;4245;42.120;24.732;2023-04-24T08:39:15;99092.28;;;21.73;48.31
8416;BME280;4245;42.120;24.732;2023-04-24T08:41:42;99088.94;;;21.86;47.79
8416;BME280;4245;42.120;24.732;2023-04-24T08:44:10;99084.72;;;22.06;48.22
8416;BME280;4245;42.120;24.732;2023-04-24T08:46:38;99090.47;;;22.76;46.02
8416;BME280;4245;42.120;24.732;2023-04-24T08:51:34;99094.22;;;23.96;42.81
8416;BME280;4245;42.120;24.732;2023-04-24T08:54:03;99086.56;;;24.41;42.03
8416;BME280;4245;42.120;24.732;2023-04-24T08:56:33;99081.81;;;24.90;40.56
8416;BME280;4245;42.120;24.732;2023-04-24T08:59:03;99076.03;;;24.65;40.45
8416;BME280;4245;42.120;24.732;2023-04-24T09:01:32;99074.72;;;24.48;40.59
8416;BME280;4245;42.120;24.732;2023-04-24T09:04:01;99073.75;;;23.72;42.82
8416;BME280;4245;42.120;24.732;2023-04-24T09:06:30;99075.06;;;24.04;42.38
8416;BME280;4245;42.120;24.732;2023-04-24T09:09:00;99070.22;;;24.75;40.69
8416;BME280;4245;42.120;24.732;2023-04-24T09:11:27;99068.13;;;25.44;40.30
8416;BME280;4245;42.120;24.732;2023-04-24T09:13:54;99079.66;;;26.06;36.60
8416;BME280;4245;42.120;24.732;2023-04-24T09:16:21;99079.47;;;26.27;36.45
8416;BME280;4245;42.120;24.732;2023-04-24T09:18:49;99072.69;;;26.49;36.00
8416;BME280;4245;42.120;24.732;2023-04-24T09:21:16;99070.84;;;26.43;34.80
8416;BME280;4245;42.120;24.732;2023-04-24T09:23:44;99069.53;;;26.52;34.44
8416;BME280;4245;42.120;24.732;2023-04-24T09:26:11;99069.81;;;26.31;34.48
8416;BME280;4245;42.120;24.732;2023-04-24T09:28:40;99064.19;;;26.00;35.98
8416;BME280;4245;42.120;24.732;2023-04-24T09:31:11;99067.72;;;26.26;35.62
8416;BME280;4245;42.120;24.732;2023-04-24T09:33:38;99058.25;;;26.35;36.05
8416;BME280;4245;42.120;24.732;2023-04-24T09:36:05;99058.91;;;26.89;36.18
8416;BME280;4245;42.120;24.732;2023-04-24T09:38:36;99055.69;;;27.36;34.16
8416;BME280;4245;42.120;24.732;2023-04-24T09:41:06;99051.66;;;26.63;34.02
8416;BME280;4245;42.120;24.732;2023-04-24T09:43:34;99046.72;;;26.47;35.00
8416;BME280;4245;42.120;24.732;2023-04-24T09:46:04;99046.22;;;26.63;34.81
8416;BME280;4245;42.120;24.732;2023-04-24T09:48:32;99039.13;;;26.55;35.07
8416;BME280;4245;42.120;24.732;2023-04-24T09:51:00;99037.84;;;26.64;36.33
8416;BME280;4245;42.120;24.732;2023-04-24T09:53:29;99045.69;;;27.30;35.39
8416;BME280;4245;42.120;24.732;2023-04-24T09:56:02;99028.47;;;28.04;34.18
8416;BME280;4245;42.120;24.732;2023-04-24T09:58:30;99040.44;;;28.46;32.99
8416;BME280;4245;42.120;24.732;2023-04-24T10:00:57;99026.34;;;28.06;33.34
8416;BME280;4245;42.120;24.732;2023-04-24T10:03:25;99035.28;;;27.95;34.00
8416;BME280;4245;42.120;24.732;2023-04-24T10:05:53;99028.94;;;28.01;34.06
8416;BME280;4245;42.120;24.732;2023-04-24T10:08:20;99026.22;;;28.37;33.51
8416;BME280;4245;42.120;24.732;2023-04-24T10:10:48;99036.63;;;28.65;33.30
8416;BME280;4245;42.120;24.732;2023-04-24T10:13:15;99031.44;;;28.93;32.74
8416;BME280;4245;42.120;24.732;2023-04-24T10:15:44;99026.28;;;28.85;32.28
8416;BME280;4245;42.120;24.732;2023-04-24T10:18:11;99012.63;;;27.45;34.20
8416;BME280;4245;42.120;24.732;2023-04-24T10:20:39;99013.03;;;27.73;34.02
8416;BME280;4245;42.120;24.732;2023-04-24T10:23:06;99011.41;;;28.08;34.18
8416;BME280;4245;42.120;24.732;2023-04-24T10:25:34;99002.47;;;27.58;34.95
8416;BME280;4245;42.120;24.732;2023-04-24T10:28:02;99004.16;;;27.78;34.98
8416;BME280;4245;42.120;24.732;2023-04-24T10:30:31;98999.75;;;28.56;34.74
8416;BME280;4245;42.120;24.732;2023-04-24T10:33:02;98990.25;;;29.18;33.36
8416;BME280;4245;42.120;24.732;2023-04-24T10:35:31;98990.34;;;29.88;32.03
8416;BME280;4245;42.120;24.732;2023-04-24T10:38:01;98994.19;;;29.99;30.65
8416;BME280;4245;42.120;24.732;2023-04-24T10:40:31;98983.56;;;29.79;31.23
8416;BME280;4245;42.120;24.732;2023-04-24T10:42:59;98970.50;;;28.57;32.97
8416;BME280;4245;42.120;24.732;2023-04-24T10:45:26;98974.31;;;28.74;33.61
8416;BME280;4245;42.120;24.732;2023-04-24T10:48:04;98968.97;;;29.20;32.33
8416;BME280;4245;42.120;24.732;2023-04-24T10:50:44;98971.88;;;29.49;32.52
8416;BME280;4245;42.120;24.732;2023-04-24T10:53:16;98968.81;;;29.80;31.30
8416;BME280;4245;42.120;24.732;2023-04-24T10:55:45;98960.78;;;28.90;32.18
8416;BME280;4245;42.120;24.732;2023-04-24T10:58:12;98966.19;;;28.97;33.36
8416;BME280;4245;42.120;24.732;2023-04-24T11:00:41;98962.28;;;29.16;32.78
8416;BME280;4245;42.120;24.732;2023-04-24T11:03:24;98955.81;;;29.41;32.62
8416;BME280;4245;42.120;24.732;2023-04-24T11:05:55;98961.91;;;30.01;31.96
8416;BME280;4245;42.120;24.732;2023-04-24T11:08:24;98953.13;;;30.39;31.33
8416;BME280;4245;42.120;24.732;2023-04-24T11:11:00;98961.63;;;30.65;31.38
8416;BME280;4245;42.120;24.732;2023-04-24T11:16:39;98949.25;;;29.88;31.65
8416;BME280;4245;42.120;24.732;2023-04-24T11:19:20;98938.25;;;29.07;33.31
8416;BME280;4245;42.120;24.732;2023-04-24T11:21:55;98938.94;;;28.61;34.54
8416;BME280;4245;42.120;24.732;2023-04-24T11:24:26;98945.19;;;28.49;35.24
8416;BME280;4245;42.120;24.732;2023-04-24T11:26:54;98938.50;;;29.17;33.93
8416;BME280;4245;42.120;24.732;2023-04-24T11:29:22;98936.31;;;28.84;33.50
8416;BME280;4245;42.120;24.732;2023-04-24T11:31:49;98935.53;;;29.07;33.40
8416;BME280;4245;42.120;24.732;2023-04-24T11:34:18;98933.66;;;29.19;32.90
8416;BME280;4245;42.120;24.732;2023-04-24T11:36:45;98925.63;;;29.06;33.54
8416;BME280;4245;42.120;24.732;2023-04-24T11:39:13;98923.25;;;28.98;33.72
8416;BME280;4245;42.120;24.732;2023-04-24T11:41:40;98924.31;;;28.97;34.37
8416;BME280;4245;42.120;24.732;2023-04-24T11:44:08;98921.22;;;28.93;34.48
8416;BME280;4245;42.120;24.732;2023-04-24T11:46:35;98908.34;;;29.35;33.92
8416;BME280;4245;42.120;24.732;2023-04-24T11:49:03;98901.19;;;29.69;33.59
8416;BME280;4245;42.120;24.732;2023-04-24T11:51:32;98900.94;;;29.94;33.34
8416;BME280;4245;42.120;24.732;2023-04-24T11:53:59;98893.06;;;29.97;32.66
8416;BME280;4245;42.120;24.732;2023-04-24T11:56:25;98881.50;;;28.79;34.84
8416;BME280;4245;42.120;24.732;2023-04-24T11:58:52;98872.72;;;28.88;34.96
8416;BME280;4245;42.120;24.732;2023-04-24T12:01:20;98873.50;;;29.42;34.44
8416;BME280;4245;42.120;24.732;2023-04-24T12:03:48;98865.81;;;29.79;33.87
8416;BME280;4245;42.120;24.732;2023-04-24T12:06:16;98874.13;;;30.36;32.92
8416;BME280;4245;42.120;24.732;2023-04-24T12:08:47;98864.28;;;30.23;33.21
8416;BME280;4245;42.120;24.732;2023-04-24T12:11:16;98847.53;;;30.48;32.86
8416;BME280;4245;42.120;24.732;2023-04-24T12:13:44;98830.72;;;30.73;32.10
8416;BME280;4245;42.120;24.732;2023-04-24T12:16:11;98826.88;;;30.90;32.01
8416;BME280;4245;42.120;24.732;2023-04-24T12:18:43;98820.75;;;31.17;31.66
8416;BME280;4245;42.120;24.732;2023-04-24T12:21:21;98808.53;;;31.08;31.87
8416;BME280;4245;42.120;24.732;2023-04-24T12:23:50;98806.69;;;30.80;32.25
8416;BME280;4245;42.120;24.732;2023-04-24T12:26:20;98812.75;;;30.82;31.97
8416;BME280;4245;42.120;24.732;2023-04-24T12:28:49;98815.56;;;30.25;32.83
8416;BME280;4245;42.120;24.732;2023-04-24T12:31:16;98804.00;;;30.23;32.57
8416;BME280;4245;42.120;24.732;2023-04-24T12:33:43;98803.69;;;29.91;32.46
8416;BME280;4245;42.120;24.732;2023-04-24T12:36:11;98796.66;;;29.84;33.01
8416;BME280;4245;42.120;24.732;2023-04-24T12:38:39;98797.28;;;29.74;33.67
8416;BME280;4245;42.120;24.732;2023-04-24T12:41:13;98781.06;;;29.09;34.82
8416;BME280;4245;42.120;24.732;2023-04-24T12:43:51;98785.59;;;29.78;33.97
8416;BME280;4245;42.120;24.732;2023-04-24T12:46:18;98777.66;;;30.05;33.47
8416;BME280;4245;42.120;24.732;2023-04-24T12:48:45;98774.72;;;30.23;33.01
8416;BME280;4245;42.120;24.732;2023-04-24T12:51:11;98765.66;;;30.23;32.95
8416;BME280;4245;42.120;24.732;2023-04-24T12:53:38;98755.44;;;30.63;32.48
8416;BME280;4245;42.120;24.732;2023-04-24T12:56:05;98750.44;;;30.77;30.56
8416;BME280;4245;42.120;24.732;2023-04-24T12:58:33;98752.50;;;30.08;31.94
8416;BME280;4245;42.120;24.732;2023-04-24T13:01:00;98747.63;;;30.10;32.29
8416;BME280;4245;42.120;24.732;2023-04-24T13:03:27;98743.50;;;30.41;32.11
8416;BME280;4245;42.120;24.732;2023-04-24T13:05:54;98750.03;;;30.52;31.07
8416;BME280;4245;42.120;24.732;2023-04-24T13:08:20;98753.44;;;30.31;31.91
8416;BME280;4245;42.120;24.732;2023-04-24T13:10:48;98743.13;;;30.83;31.15
8416;BME280;4245;42.120;24.732;2023-04-24T13:13:14;98735.50;;;30.68;30.44
8416;BME280;4245;42.120;24.732;2023-04-24T13:15:43;98732.50;;;30.53;31.22